الصفحة الرئيسية
METAR-TAF:

METAR-TAF

مطار :

كرمان, إيران

دائرة عرض: 30-15N, خط طول: 056-58E, ارتفاع: 1748 متر

مراقبة الطقس الحالي

تاريخ ووقت الإصدار 1ساعة و 2 دقيقة قبل الساعة 22:00UTC
رياح هادئة
درجة الحرارة 24°درجة مئوية
الرطوبة 27%
ضغط 1015 hPa
الرؤية 10 كم أو أكثر
غيوم متفرقة على ارتفاع 10000 قدم

METAR: OIKK 242200Z 00000KT 9999 SCT100 24/04 Q1015 A2998

زمن: 03:32 (23:02 UTC)

توقعات

تاريخ ووقت الإصدار 5ساعات و 2 دقيقة قبل الساعة 18:00UTC
التوقعات صالحة من24 الساعة 18 UTC إلى 25 الساعة 24 UTC
ريح 8 عقدة من الشمال/الشمال الشرقي
الرؤية: 7000 متر
غيوم قليلة على ارتفاع 4000 قدم
مؤقت
من 25 الساعة 11 UTC إلى 25 الساعة 17 UTC
ريح 18 عقدة من الشمال/الشمال الغربي
غيوم قليلة على ارتفاع 3500 قدم, مزنة ركامية.
غيوم متفرقة على ارتفاع 4000 قدم

TAF: OIKK 241800Z 2418/2524 03008KT 7000 FEW040 TEMPO 2511/2517 33018KT FEW035CB SCT040

أرصاد الطقس والتوقعات من أكثر من 4000 مطار (تقارير الطقس للمطار METAR والتنبؤ بالطقس بالمطارTAF).

المحطات المتاحة هي النقط الصفراء والحمراء على الخريطة.

حرك المؤشر فوق النقطة لمعرفة اسم المحطة.

ثم انقر لمعرفة أرصاد وتوقعات الطقس.

لتغيير الخارطة: اضغط على الأزرار الخضراء مع رمز الصليب الأسود للتكبير. على الزر الأخضر مع شرطة للتصغير، أو على الأسهم الخضراء للخرائط المجاورة.


METAR-TAF: